Nearby METAR Reports

 

EGSS - Stansted Airport, United Kingdom
Distance from station: NW 15mi, 24km
Updated: 29/05/2024 11:50
Mostly cloudy
Mostly cloudy
 Wind from W
Wind: W 12 mph, 19 km/h
Temperature: 17°C
Dew Point: 10°C
Humidity: 64%
Barometer: 1009 hPa
Clouds: Mostly cloudy
Visibility: 6 miles, 10 km
Cloud details: Partly cloudy 975 m
Mostly cloudy 1189 m
2024/05/29 10:50 EGSS 291050Z 28010KT 9999 SCT032 BKN039 17/10 Q1009
EGMC - Southend-On-Sea, United Kingdom
Distance from station: SE 15mi, 25km
Updated: 29/05/2024 11:50
Partly cloudy
Partly cloudy
 Wind from W
Wind: W 13 mph, 20 km/h
Temperature: 18°C
Dew Point: 10°C
Humidity: 60%
Barometer: 1008 hPa
Clouds: Partly cloudy
Visibility: 6 miles, 10 km
Cloud details: Few Clouds 1067 m
Partly cloudy 1402 m
2024/05/29 10:50 EGMC 291050Z 26011KT 220V300 9999 FEW035 SCT046 18/10 Q1008
 
EGLC - London City Airp, United Kingdom
Distance from station: SW 24mi, 39km
Updated: 29/05/2024 11:50
Clear
Clear
 Wind from W
Wind: W 12 mph, 19 km/h
Temperature: 18°C
Dew Point: 9°C
Humidity: 56%
Barometer: 1009 hPa
Clouds: Clear
Visibility: 6 miles, 10 km
2024/05/29 10:50 EGLC 291050Z AUTO 26010KT 9999 NCD 18/09 Q1009
EGUW - Wattisham Raf, United Kingdom
Distance from station: NE 34mi, 54km
Updated: 29/05/2024 11:50
Mostly cloudy
Mostly cloudy
 Wind from W
Wind: W 16 mph, 26 km/h
Temperature: 18°C
Dew Point: 12°C
Humidity: 68%
Barometer: 1008 hPa
Clouds: Mostly cloudy
Visibility: 6 miles, 10 km
Cloud details: Few Clouds 762 m
Mostly cloudy 1219 m
2024/05/29 10:50 EGUW 291050Z 28014KT 9999 FEW025 BKN040 18/12 Q1008 TEMPO 5000 SHRA SCT024TCU RMK BLU TEMPO WHT
 
EGGW - Luton Airport, United Kingdom
Distance from station: WNW 37mi, 59km
Updated: 29/05/2024 11:50
Partly cloudy
Partly cloudy
 Wind from W
Wind: W 15 mph, 24 km/h
Temperature: 17°C
Dew Point: 11°C
Humidity: 68%
Barometer: 1009 hPa
Clouds: Partly cloudy
Visibility: 6 miles, 10 km
Cloud details: Few Clouds 884 m
Partly cloudy 1097 m
2024/05/29 10:50 EGGW 291050Z AUTO 27013KT 240V300 9999 FEW029 SCT036 17/11 Q1009
EGWU - Northolt Raf, United Kingdom
Distance from station: WSW 40mi, 64km
Updated: 29/05/2024 11:50
Partly cloudy
Partly cloudy
 Wind from W
Wind: W 14 mph, 22 km/h
Temperature: 18°C
Dew Point: 10°C
Humidity: 60%
Barometer: 1009 hPa
Clouds: Partly cloudy
Visibility: 6 miles, 10 km
Cloud details: Few Clouds 1067 m
Partly cloudy 1646 m
2024/05/29 10:50 EGWU 291050Z 28012KT 9999 FEW035 SCT054 18/10 Q1009 NOSIG